sensor_id;sensor_type;location;lat;lon;timestamp;temperature;humidity
981;DHT22;479;53.514;9.994;2022-11-15T00:01:08;6.20;99.90
981;DHT22;479;53.514;9.994;2022-11-15T00:03:53;6.20;99.90
981;DHT22;479;53.514;9.994;2022-11-15T00:06:39;6.10;99.90
981;DHT22;479;53.514;9.994;2022-11-15T00:09:25;6.20;99.90
981;DHT22;479;53.514;9.994;2022-11-15T00:12:11;6.20;99.90
981;DHT22;479;53.514;9.994;2022-11-15T00:14:56;6.20;99.90
981;DHT22;479;53.514;9.994;2022-11-15T00:17:41;6.20;99.90
981;DHT22;479;53.514;9.994;2022-11-15T00:20:27;6.30;99.90
981;DHT22;479;53.514;9.994;2022-11-15T00:23:12;6.30;99.90
981;DHT22;479;53.514;9.994;2022-11-15T00:26:00;6.40;99.90
981;DHT22;479;53.514;9.994;2022-11-15T00:28:45;6.30;99.90
981;DHT22;479;53.514;9.994;2022-11-15T00:31:31;6.30;99.90
981;DHT22;479;53.514;9.994;2022-11-15T00:34:16;6.30;99.90
981;DHT22;479;53.514;9.994;2022-11-15T00:37:01;6.30;99.90
981;DHT22;479;53.514;9.994;2022-11-15T00:39:47;6.30;99.90
981;DHT22;479;53.514;9.994;2022-11-15T00:42:33;6.30;99.90
981;DHT22;479;53.514;9.994;2022-11-15T00:45:19;6.30;99.90
981;DHT22;479;53.514;9.994;2022-11-15T00:48:04;6.30;99.90
981;DHT22;479;53.514;9.994;2022-11-15T00:50:50;6.30;99.90
981;DHT22;479;53.514;9.994;2022-11-15T00:53:35;6.20;99.90
981;DHT22;479;53.514;9.994;2022-11-15T00:56:21;6.20;99.90
981;DHT22;479;53.514;9.994;2022-11-15T00:59:07;6.30;99.90
981;DHT22;479;53.514;9.994;2022-11-15T01:01:52;6.30;99.90
981;DHT22;479;53.514;9.994;2022-11-15T01:04:38;6.30;99.90
981;DHT22;479;53.514;9.994;2022-11-15T01:07:23;6.30;99.90
981;DHT22;479;53.514;9.994;2022-11-15T01:10:09;6.20;99.90
981;DHT22;479;53.514;9.994;2022-11-15T01:12:54;6.20;99.90
981;DHT22;479;53.514;9.994;2022-11-15T01:15:41;6.10;99.90
981;DHT22;479;53.514;9.994;2022-11-15T01:18:27;6.10;99.90
981;DHT22;479;53.514;9.994;2022-11-15T01:21:14;6.00;99.90
981;DHT22;479;53.514;9.994;2022-11-15T01:24:00;6.00;99.90
981;DHT22;479;53.514;9.994;2022-11-15T01:26:45;6.00;99.90
981;DHT22;479;53.514;9.994;2022-11-15T01:29:30;5.90;99.90
981;DHT22;479;53.514;9.994;2022-11-15T01:32:17;5.90;99.90
981;DHT22;479;53.514;9.994;2022-11-15T01:35:03;5.80;99.90
981;DHT22;479;53.514;9.994;2022-11-15T01:37:48;5.80;99.90
981;DHT22;479;53.514;9.994;2022-11-15T01:40:33;5.80;99.90
981;DHT22;479;53.514;9.994;2022-11-15T01:43:24;5.80;99.90
981;DHT22;479;53.514;9.994;2022-11-15T01:46:22;5.80;99.90
981;DHT22;479;53.514;9.994;2022-11-15T01:49:13;5.70;99.90
981;DHT22;479;53.514;9.994;2022-11-15T01:52:03;5.70;99.90
981;DHT22;479;53.514;9.994;2022-11-15T01:54:52;5.70;99.90
981;DHT22;479;53.514;9.994;2022-11-15T01:57:40;5.70;99.90
981;DHT22;479;53.514;9.994;2022-11-15T02:00:26;5.60;99.90
981;DHT22;479;53.514;9.994;2022-11-15T02:03:11;5.60;99.90
981;DHT22;479;53.514;9.994;2022-11-15T02:05:59;5.60;99.90
981;DHT22;479;53.514;9.994;2022-11-15T02:08:44;5.50;99.90
981;DHT22;479;53.514;9.994;2022-11-15T02:11:30;5.50;99.90
981;DHT22;479;53.514;9.994;2022-11-15T02:14:18;5.50;99.90
981;DHT22;479;53.514;9.994;2022-11-15T02:17:13;5.50;99.90
981;DHT22;479;53.514;9.994;2022-11-15T02:20:20;5.50;99.90
981;DHT22;479;53.514;9.994;2022-11-15T02:27:11;5.40;99.90
981;DHT22;479;53.514;9.994;2022-11-15T02:30:20;5.40;99.90
981;DHT22;479;53.514;9.994;2022-11-15T02:33:14;5.40;99.90
981;DHT22;479;53.514;9.994;2022-11-15T02:36:10;5.30;99.90
981;DHT22;479;53.514;9.994;2022-11-15T02:39:02;5.30;99.90
981;DHT22;479;53.514;9.994;2022-11-15T02:41:52;5.30;99.90
981;DHT22;479;53.514;9.994;2022-11-15T02:44:44;5.30;99.90
981;DHT22;479;53.514;9.994;2022-11-15T02:47:35;5.30;99.90
981;DHT22;479;53.514;9.994;2022-11-15T02:50:25;5.30;99.90
981;DHT22;479;53.514;9.994;2022-11-15T02:53:14;5.30;99.90
981;DHT22;479;53.514;9.994;2022-11-15T02:55:59;5.30;99.90
981;DHT22;479;53.514;9.994;2022-11-15T02:59:07;5.20;99.90
981;DHT22;479;53.514;9.994;2022-11-15T03:02:06;5.30;99.90
981;DHT22;479;53.514;9.994;2022-11-15T03:04:59;5.30;99.90
981;DHT22;479;53.514;9.994;2022-11-15T03:07:54;5.30;99.90
981;DHT22;479;53.514;9.994;2022-11-15T03:10:46;5.30;99.90
981;DHT22;479;53.514;9.994;2022-11-15T03:13:38;5.30;99.90
981;DHT22;479;53.514;9.994;2022-11-15T03:16:29;5.30;99.90
981;DHT22;479;53.514;9.994;2022-11-15T03:19:21;5.30;99.90
981;DHT22;479;53.514;9.994;2022-11-15T03:22:16;5.30;99.90
981;DHT22;479;53.514;9.994;2022-11-15T03:25:05;5.30;99.90
981;DHT22;479;53.514;9.994;2022-11-15T03:27:54;5.30;99.90
981;DHT22;479;53.514;9.994;2022-11-15T03:30:41;5.30;99.90
981;DHT22;479;53.514;9.994;2022-11-15T03:33:28;5.30;99.90
981;DHT22;479;53.514;9.994;2022-11-15T03:36:14;5.30;99.90
981;DHT22;479;53.514;9.994;2022-11-15T03:39:06;5.30;99.90
981;DHT22;479;53.514;9.994;2022-11-15T03:41:57;5.30;99.90
981;DHT22;479;53.514;9.994;2022-11-15T03:44:51;5.40;99.90
981;DHT22;479;53.514;9.994;2022-11-15T03:47:42;5.40;99.90
981;DHT22;479;53.514;9.994;2022-11-15T03:50:29;5.40;99.90
981;DHT22;479;53.514;9.994;2022-11-15T03:53:16;5.40;99.90
981;DHT22;479;53.514;9.994;2022-11-15T03:56:03;5.40;99.90
981;DHT22;479;53.514;9.994;2022-11-15T03:58:49;5.40;99.90
981;DHT22;479;53.514;9.994;2022-11-15T04:01:34;5.30;99.90
981;DHT22;479;53.514;9.994;2022-11-15T04:04:19;5.40;99.90
981;DHT22;479;53.514;9.994;2022-11-15T04:07:05;5.40;99.90
981;DHT22;479;53.514;9.994;2022-11-15T04:09:51;5.40;99.90
981;DHT22;479;53.514;9.994;2022-11-15T04:12:50;5.40;99.90
981;DHT22;479;53.514;9.994;2022-11-15T04:15:36;5.50;99.90
981;DHT22;479;53.514;9.994;2022-11-15T04:18:21;5.60;99.90
981;DHT22;479;53.514;9.994;2022-11-15T04:21:08;5.60;99.90
981;DHT22;479;53.514;9.994;2022-11-15T04:24:12;5.60;99.90
981;DHT22;479;53.514;9.994;2022-11-15T04:26:57;5.70;99.90
981;DHT22;479;53.514;9.994;2022-11-15T04:29:44;5.70;99.90
981;DHT22;479;53.514;9.994;2022-11-15T04:32:29;5.70;99.90
981;DHT22;479;53.514;9.994;2022-11-15T04:35:15;5.80;99.90
981;DHT22;479;53.514;9.994;2022-11-15T04:38:01;5.80;99.90
981;DHT22;479;53.514;9.994;2022-11-15T04:40:46;5.90;99.90
981;DHT22;479;53.514;9.994;2022-11-15T04:43:32;5.90;99.90
981;DHT22;479;53.514;9.994;2022-11-15T04:46:18;6.00;99.90
981;DHT22;479;53.514;9.994;2022-11-15T04:49:03;6.00;99.90
981;DHT22;479;53.514;9.994;2022-11-15T04:51:49;6.00;99.90
981;DHT22;479;53.514;9.994;2022-11-15T04:54:34;6.00;99.90
981;DHT22;479;53.514;9.994;2022-11-15T04:57:20;6.00;99.90
981;DHT22;479;53.514;9.994;2022-11-15T05:00:07;6.00;99.90
981;DHT22;479;53.514;9.994;2022-11-15T05:02:54;6.00;99.90
981;DHT22;479;53.514;9.994;2022-11-15T05:05:58;6.00;99.90
981;DHT22;479;53.514;9.994;2022-11-15T05:08:44;6.10;99.90
981;DHT22;479;53.514;9.994;2022-11-15T05:11:29;6.10;99.90
981;DHT22;479;53.514;9.994;2022-11-15T05:14:14;6.10;99.90
981;DHT22;479;53.514;9.994;2022-11-15T05:17:00;6.10;99.90
981;DHT22;479;53.514;9.994;2022-11-15T05:19:47;6.20;99.90
981;DHT22;479;53.514;9.994;2022-11-15T05:22:34;6.30;99.90
981;DHT22;479;53.514;9.994;2022-11-15T05:25:19;6.30;99.90
981;DHT22;479;53.514;9.994;2022-11-15T05:28:05;6.40;99.90
981;DHT22;479;53.514;9.994;2022-11-15T05:30:51;6.40;99.90
981;DHT22;479;53.514;9.994;2022-11-15T05:33:37;6.40;99.90
981;DHT22;479;53.514;9.994;2022-11-15T05:36:31;6.50;99.90
981;DHT22;479;53.514;9.994;2022-11-15T05:39:17;6.50;99.90
981;DHT22;479;53.514;9.994;2022-11-15T05:42:06;6.60;99.90
981;DHT22;479;53.514;9.994;2022-11-15T05:44:52;6.50;99.90
981;DHT22;479;53.514;9.994;2022-11-15T05:47:39;6.60;99.90
981;DHT22;479;53.514;9.994;2022-11-15T05:50:25;6.60;99.90
981;DHT22;479;53.514;9.994;2022-11-15T05:53:14;6.70;99.90
981;DHT22;479;53.514;9.994;2022-11-15T05:56:00;6.70;99.90
981;DHT22;479;53.514;9.994;2022-11-15T05:58:45;6.80;99.90
981;DHT22;479;53.514;9.994;2022-11-15T06:01:31;6.80;99.90
981;DHT22;479;53.514;9.994;2022-11-15T06:04:16;6.80;99.90
981;DHT22;479;53.514;9.994;2022-11-15T06:07:02;6.80;99.90
981;DHT22;479;53.514;9.994;2022-11-15T06:09:49;6.80;99.90
981;DHT22;479;53.514;9.994;2022-11-15T06:12:34;6.90;99.90
981;DHT22;479;53.514;9.994;2022-11-15T06:15:20;6.90;99.90
981;DHT22;479;53.514;9.994;2022-11-15T06:18:05;6.90;99.90
981;DHT22;479;53.514;9.994;2022-11-15T06:20:50;6.90;99.90
981;DHT22;479;53.514;9.994;2022-11-15T06:23:36;6.90;99.90
981;DHT22;479;53.514;9.994;2022-11-15T06:26:22;6.90;99.90
981;DHT22;479;53.514;9.994;2022-11-15T06:29:08;6.90;99.90
981;DHT22;479;53.514;9.994;2022-11-15T06:31:53;6.90;99.90
981;DHT22;479;53.514;9.994;2022-11-15T06:34:38;6.90;99.90
981;DHT22;479;53.514;9.994;2022-11-15T06:37:24;6.90;99.90
981;DHT22;479;53.514;9.994;2022-11-15T06:40:10;7.00;99.90
981;DHT22;479;53.514;9.994;2022-11-15T06:42:58;7.00;99.90
981;DHT22;479;53.514;9.994;2022-11-15T06:45:44;6.90;99.90
981;DHT22;479;53.514;9.994;2022-11-15T06:48:31;6.90;99.90
981;DHT22;479;53.514;9.994;2022-11-15T06:51:16;6.90;99.90
981;DHT22;479;53.514;9.994;2022-11-15T06:54:02;6.90;99.90
981;DHT22;479;53.514;9.994;2022-11-15T06:56:48;6.90;99.90
981;DHT22;479;53.514;9.994;2022-11-15T06:59:34;6.90;99.90
981;DHT22;479;53.514;9.994;2022-11-15T07:02:19;6.90;99.90
981;DHT22;479;53.514;9.994;2022-11-15T07:05:05;6.90;99.90
981;DHT22;479;53.514;9.994;2022-11-15T07:07:52;6.90;99.90
981;DHT22;479;53.514;9.994;2022-11-15T07:10:38;6.90;99.90
981;DHT22;479;53.514;9.994;2022-11-15T07:13:24;6.90;99.90
981;DHT22;479;53.514;9.994;2022-11-15T07:16:11;6.90;99.90
981;DHT22;479;53.514;9.994;2022-11-15T07:18:57;7.00;99.90
981;DHT22;479;53.514;9.994;2022-11-15T07:21:42;7.10;99.90
981;DHT22;479;53.514;9.994;2022-11-15T07:24:28;7.00;99.90
981;DHT22;479;53.514;9.994;2022-11-15T07:27:13;7.00;99.90
981;DHT22;479;53.514;9.994;2022-11-15T07:29:58;7.10;99.90
981;DHT22;479;53.514;9.994;2022-11-15T07:32:45;7.10;99.90
981;DHT22;479;53.514;9.994;2022-11-15T07:35:30;7.20;99.90
981;DHT22;479;53.514;9.994;2022-11-15T07:38:16;7.20;99.90
981;DHT22;479;53.514;9.994;2022-11-15T07:41:05;7.20;99.90
981;DHT22;479;53.514;9.994;2022-11-15T07:43:51;7.30;99.90
981;DHT22;479;53.514;9.994;2022-11-15T07:46:37;7.30;99.90
981;DHT22;479;53.514;9.994;2022-11-15T07:49:24;7.20;99.90
981;DHT22;479;53.514;9.994;2022-11-15T07:52:09;7.20;99.90
981;DHT22;479;53.514;9.994;2022-11-15T07:54:54;7.20;99.90
981;DHT22;479;53.514;9.994;2022-11-15T07:57:39;7.20;99.90
981;DHT22;479;53.514;9.994;2022-11-15T08:00:25;7.20;99.90
981;DHT22;479;53.514;9.994;2022-11-15T08:03:12;7.20;99.90
981;DHT22;479;53.514;9.994;2022-11-15T08:05:59;7.20;99.90
981;DHT22;479;53.514;9.994;2022-11-15T08:08:44;7.30;99.90
981;DHT22;479;53.514;9.994;2022-11-15T08:11:31;7.40;99.90
981;DHT22;479;53.514;9.994;2022-11-15T08:14:16;7.50;99.90
981;DHT22;479;53.514;9.994;2022-11-15T08:17:02;7.50;99.90
981;DHT22;479;53.514;9.994;2022-11-15T08:19:47;7.80;99.90
981;DHT22;479;53.514;9.994;2022-11-15T08:22:34;7.80;99.90
981;DHT22;479;53.514;9.994;2022-11-15T08:25:20;7.80;99.90
981;DHT22;479;53.514;9.994;2022-11-15T08:28:07;7.80;99.90
981;DHT22;479;53.514;9.994;2022-11-15T08:30:54;7.80;99.90
981;DHT22;479;53.514;9.994;2022-11-15T08:33:43;7.80;99.90
981;DHT22;479;53.514;9.994;2022-11-15T08:36:29;7.70;99.90
981;DHT22;479;53.514;9.994;2022-11-15T08:39:16;7.70;99.90
981;DHT22;479;53.514;9.994;2022-11-15T08:42:01;7.70;99.90
981;DHT22;479;53.514;9.994;2022-11-15T08:44:47;7.70;99.90
981;DHT22;479;53.514;9.994;2022-11-15T08:47:32;7.70;99.90
981;DHT22;479;53.514;9.994;2022-11-15T08:50:18;7.70;99.90
981;DHT22;479;53.514;9.994;2022-11-15T08:53:05;7.60;99.90
981;DHT22;479;53.514;9.994;2022-11-15T08:55:52;7.60;99.90
981;DHT22;479;53.514;9.994;2022-11-15T08:58:38;7.60;99.90
981;DHT22;479;53.514;9.994;2022-11-15T09:01:23;7.70;99.90
981;DHT22;479;53.514;9.994;2022-11-15T09:04:09;7.70;99.90
981;DHT22;479;53.514;9.994;2022-11-15T09:06:54;7.90;99.90
981;DHT22;479;53.514;9.994;2022-11-15T09:09:39;7.90;99.90
981;DHT22;479;53.514;9.994;2022-11-15T09:12:26;8.00;99.90
981;DHT22;479;53.514;9.994;2022-11-15T09:15:12;8.10;99.90
981;DHT22;479;53.514;9.994;2022-11-15T09:17:58;8.20;99.90
981;DHT22;479;53.514;9.994;2022-11-15T09:20:43;8.30;99.90
981;DHT22;479;53.514;9.994;2022-11-15T09:23:29;8.30;99.90
981;DHT22;479;53.514;9.994;2022-11-15T09:26:14;8.40;99.90
981;DHT22;479;53.514;9.994;2022-11-15T09:29:01;8.40;99.90
981;DHT22;479;53.514;9.994;2022-11-15T09:31:46;8.40;99.90
981;DHT22;479;53.514;9.994;2022-11-15T09:34:31;8.40;99.90
981;DHT22;479;53.514;9.994;2022-11-15T09:37:17;8.50;99.90
981;DHT22;479;53.514;9.994;2022-11-15T09:40:03;8.70;99.90
981;DHT22;479;53.514;9.994;2022-11-15T09:43:00;8.80;99.90
981;DHT22;479;53.514;9.994;2022-11-15T09:45:55;9.10;99.90
981;DHT22;479;53.514;9.994;2022-11-15T09:48:50;9.50;99.90
981;DHT22;479;53.514;9.994;2022-11-15T09:51:47;9.70;99.90
981;DHT22;479;53.514;9.994;2022-11-15T09:54:27;9.90;99.90
981;DHT22;479;53.514;9.994;2022-11-15T09:56:56;9.90;99.90
981;DHT22;479;53.514;9.994;2022-11-15T09:59:40;9.90;99.90
981;DHT22;479;53.514;9.994;2022-11-15T10:02:23;9.80;99.90
981;DHT22;479;53.514;9.994;2022-11-15T10:04:51;9.80;99.90
981;DHT22;479;53.514;9.994;2022-11-15T10:07:23;9.80;99.90
981;DHT22;479;53.514;9.994;2022-11-15T10:09:54;9.70;99.90
981;DHT22;479;53.514;9.994;2022-11-15T10:12:22;9.60;99.90
981;DHT22;479;53.514;9.994;2022-11-15T10:14:56;9.60;99.90
981;DHT22;479;53.514;9.994;2022-11-15T10:17:57;9.50;99.90
981;DHT22;479;53.514;9.994;2022-11-15T10:20:28;9.50;99.90
981;DHT22;479;53.514;9.994;2022-11-15T10:22:58;9.50;99.90
981;DHT22;479;53.514;9.994;2022-11-15T10:25:27;9.50;99.90
981;DHT22;479;53.514;9.994;2022-11-15T10:27:56;9.60;99.90
981;DHT22;479;53.514;9.994;2022-11-15T10:30:32;9.60;99.90
981;DHT22;479;53.514;9.994;2022-11-15T10:33:12;9.60;99.90
981;DHT22;479;53.514;9.994;2022-11-15T10:35:40;9.70;99.90
981;DHT22;479;53.514;9.994;2022-11-15T10:38:09;9.80;99.90
981;DHT22;479;53.514;9.994;2022-11-15T10:40:37;9.80;99.90
981;DHT22;479;53.514;9.994;2022-11-15T10:43:12;9.90;99.90
981;DHT22;479;53.514;9.994;2022-11-15T10:45:40;9.90;99.90
981;DHT22;479;53.514;9.994;2022-11-15T10:48:26;10.10;99.90
981;DHT22;479;53.514;9.994;2022-11-15T10:50:54;10.10;99.90
981;DHT22;479;53.514;9.994;2022-11-15T10:53:25;10.10;99.90
981;DHT22;479;53.514;9.994;2022-11-15T10:55:55;10.10;99.90
981;DHT22;479;53.514;9.994;2022-11-15T10:58:36;10.10;99.90
981;DHT22;479;53.514;9.994;2022-11-15T11:01:13;10.10;99.90
981;DHT22;479;53.514;9.994;2022-11-15T11:03:43;10.20;99.90
981;DHT22;479;53.514;9.994;2022-11-15T11:06:12;10.30;99.90
981;DHT22;479;53.514;9.994;2022-11-15T11:08:39;10.30;99.90
981;DHT22;479;53.514;9.994;2022-11-15T11:11:07;10.40;99.90
981;DHT22;479;53.514;9.994;2022-11-15T11:13:36;10.40;99.90
981;DHT22;479;53.514;9.994;2022-11-15T11:16:29;10.50;99.90
981;DHT22;479;53.514;9.994;2022-11-15T11:19:13;10.60;99.90
981;DHT22;479;53.514;9.994;2022-11-15T11:21:49;10.50;99.90
981;DHT22;479;53.514;9.994;2022-11-15T11:24:23;10.50;99.90
981;DHT22;479;53.514;9.994;2022-11-15T11:27:05;10.40;99.90
981;DHT22;479;53.514;9.994;2022-11-15T11:29:45;10.40;99.90
981;DHT22;479;53.514;9.994;2022-11-15T11:32:36;10.50;99.90
981;DHT22;479;53.514;9.994;2022-11-15T11:35:12;10.50;99.90
981;DHT22;479;53.514;9.994;2022-11-15T11:37:45;10.50;99.90
981;DHT22;479;53.514;9.994;2022-11-15T11:40:24;10.50;99.90
981;DHT22;479;53.514;9.994;2022-11-15T11:42:57;10.60;99.90
981;DHT22;479;53.514;9.994;2022-11-15T11:48:23;10.50;99.90
981;DHT22;479;53.514;9.994;2022-11-15T11:51:05;10.50;99.90
981;DHT22;479;53.514;9.994;2022-11-15T11:53:39;10.50;99.90
981;DHT22;479;53.514;9.994;2022-11-15T11:56:22;10.50;99.90
981;DHT22;479;53.514;9.994;2022-11-15T11:58:50;10.60;99.90
981;DHT22;479;53.514;9.994;2022-11-15T12:01:23;10.60;99.90
981;DHT22;479;53.514;9.994;2022-11-15T12:03:55;10.60;99.90
981;DHT22;479;53.514;9.994;2022-11-15T12:06:30;10.70;99.90
981;DHT22;479;53.514;9.994;2022-11-15T12:09:02;10.80;99.90
981;DHT22;479;53.514;9.994;2022-11-15T12:11:36;10.90;99.90
981;DHT22;479;53.514;9.994;2022-11-15T12:14:22;10.90;99.90
981;DHT22;479;53.514;9.994;2022-11-15T12:16:51;11.00;99.90
981;DHT22;479;53.514;9.994;2022-11-15T12:19:18;11.10;99.90
981;DHT22;479;53.514;9.994;2022-11-15T12:21:55;11.20;99.90
981;DHT22;479;53.514;9.994;2022-11-15T12:24:28;11.20;99.90
981;DHT22;479;53.514;9.994;2022-11-15T12:27:01;11.20;99.90
981;DHT22;479;53.514;9.994;2022-11-15T12:29:33;11.10;99.90
981;DHT22;479;53.514;9.994;2022-11-15T12:32:02;11.10;99.90
981;DHT22;479;53.514;9.994;2022-11-15T12:34:37;11.10;99.90
981;DHT22;479;53.514;9.994;2022-11-15T12:40:25;11.20;99.90
981;DHT22;479;53.514;9.994;2022-11-15T12:45:45;11.30;99.90
981;DHT22;479;53.514;9.994;2022-11-15T12:54:52;11.40;99.90
981;DHT22;479;53.514;9.994;2022-11-15T12:57:35;11.40;99.90
981;DHT22;479;53.514;9.994;2022-11-15T13:03:23;11.40;99.90
981;DHT22;479;53.514;9.994;2022-11-15T13:08:44;11.40;99.90
981;DHT22;479;53.514;9.994;2022-11-15T13:11:44;11.40;99.90
981;DHT22;479;53.514;9.994;2022-11-15T13:14:48;11.50;99.90
981;DHT22;479;53.514;9.994;2022-11-15T13:17:28;11.50;99.90
981;DHT22;479;53.514;9.994;2022-11-15T13:19:59;11.50;99.90
981;DHT22;479;53.514;9.994;2022-11-15T13:22:26;11.50;99.90
981;DHT22;479;53.514;9.994;2022-11-15T13:25:16;11.50;99.90
981;DHT22;479;53.514;9.994;2022-11-15T13:27:45;11.60;99.90
981;DHT22;479;53.514;9.994;2022-11-15T13:30:19;11.60;99.90
981;DHT22;479;53.514;9.994;2022-11-15T13:32:46;11.70;99.90
981;DHT22;479;53.514;9.994;2022-11-15T13:35:20;11.70;99.90
981;DHT22;479;53.514;9.994;2022-11-15T13:37:47;11.70;99.90
981;DHT22;479;53.514;9.994;2022-11-15T13:40:24;11.70;99.90
981;DHT22;479;53.514;9.994;2022-11-15T13:42:53;11.80;99.90
981;DHT22;479;53.514;9.994;2022-11-15T13:45:21;11.80;99.90
981;DHT22;479;53.514;9.994;2022-11-15T13:47:54;11.80;99.90
981;DHT22;479;53.514;9.994;2022-11-15T13:50:23;11.80;99.90
981;DHT22;479;53.514;9.994;2022-11-15T13:52:51;11.90;99.90
981;DHT22;479;53.514;9.994;2022-11-15T13:55:20;11.90;99.90
981;DHT22;479;53.514;9.994;2022-11-15T13:57:49;11.90;99.90
981;DHT22;479;53.514;9.994;2022-11-15T14:00:33;11.90;99.90
981;DHT22;479;53.514;9.994;2022-11-15T14:03:07;11.90;99.90
981;DHT22;479;53.514;9.994;2022-11-15T14:05:35;11.90;99.90
981;DHT22;479;53.514;9.994;2022-11-15T14:08:05;12.00;99.90
981;DHT22;479;53.514;9.994;2022-11-15T14:10:39;12.00;99.90
981;DHT22;479;53.514;9.994;2022-11-15T14:13:28;12.00;99.90
981;DHT22;479;53.514;9.994;2022-11-15T14:16:13;12.00;99.90
981;DHT22;479;53.514;9.994;2022-11-15T14:18:46;11.90;99.90
981;DHT22;479;53.514;9.994;2022-11-15T14:21:13;11.90;99.90
981;DHT22;479;53.514;9.994;2022-11-15T14:23:40;11.90;99.90
981;DHT22;479;53.514;9.994;2022-11-15T14:26:25;11.90;99.90
981;DHT22;479;53.514;9.994;2022-11-15T14:28:52;11.90;99.90
981;DHT22;479;53.514;9.994;2022-11-15T14:31:20;11.90;99.90
981;DHT22;479;53.514;9.994;2022-11-15T14:33:48;11.90;99.90
981;DHT22;479;53.514;9.994;2022-11-15T14:36:16;11.90;99.90
981;DHT22;479;53.514;9.994;2022-11-15T14:38:44;11.80;99.90
981;DHT22;479;53.514;9.994;2022-11-15T14:41:17;11.80;99.90
981;DHT22;479;53.514;9.994;2022-11-15T14:43:44;11.70;99.90
981;DHT22;479;53.514;9.994;2022-11-15T14:46:11;11.70;99.90
981;DHT22;479;53.514;9.994;2022-11-15T14:48:39;11.60;99.90
981;DHT22;479;53.514;9.994;2022-11-15T14:51:11;11.60;99.90
981;DHT22;479;53.514;9.994;2022-11-15T14:53:39;11.60;99.90
981;DHT22;479;53.514;9.994;2022-11-15T14:56:06;11.50;99.90
981;DHT22;479;53.514;9.994;2022-11-15T14:58:33;11.50;99.90
981;DHT22;479;53.514;9.994;2022-11-15T15:01:02;11.50;99.90
981;DHT22;479;53.514;9.994;2022-11-15T15:03:29;11.40;99.90
981;DHT22;479;53.514;9.994;2022-11-15T15:05:57;11.40;99.90
981;DHT22;479;53.514;9.994;2022-11-15T15:08:24;11.30;99.90
981;DHT22;479;53.514;9.994;2022-11-15T15:10:51;11.30;99.90
981;DHT22;479;53.514;9.994;2022-11-15T15:13:19;11.20;99.90
981;DHT22;479;53.514;9.994;2022-11-15T15:15:51;11.20;99.90
981;DHT22;479;53.514;9.994;2022-11-15T15:18:19;11.20;99.90
981;DHT22;479;53.514;9.994;2022-11-15T15:20:54;11.10;99.90
981;DHT22;479;53.514;9.994;2022-11-15T15:23:23;11.10;99.90
981;DHT22;479;53.514;9.994;2022-11-15T15:25:51;11.10;99.90
981;DHT22;479;53.514;9.994;2022-11-15T15:28:18;11.10;99.90
981;DHT22;479;53.514;9.994;2022-11-15T15:30:47;11.00;99.90
981;DHT22;479;53.514;9.994;2022-11-15T15:33:15;11.00;99.90
981;DHT22;479;53.514;9.994;2022-11-15T15:35:42;10.90;99.90
981;DHT22;479;53.514;9.994;2022-11-15T15:38:10;10.90;99.90
981;DHT22;479;53.514;9.994;2022-11-15T15:40:39;10.80;99.90
981;DHT22;479;53.514;9.994;2022-11-15T15:43:05;10.80;99.90
981;DHT22;479;53.514;9.994;2022-11-15T15:45:36;10.80;99.90
981;DHT22;479;53.514;9.994;2022-11-15T15:48:03;10.70;99.90
981;DHT22;479;53.514;9.994;2022-11-15T15:50:33;10.70;99.90
981;DHT22;479;53.514;9.994;2022-11-15T15:53:01;10.60;99.90
981;DHT22;479;53.514;9.994;2022-11-15T15:55:28;10.60;99.90
981;DHT22;479;53.514;9.994;2022-11-15T15:57:57;10.60;99.90
981;DHT22;479;53.514;9.994;2022-11-15T16:00:25;10.60;99.90
981;DHT22;479;53.514;9.994;2022-11-15T16:02:52;10.50;99.90
981;DHT22;479;53.514;9.994;2022-11-15T16:05:19;10.50;99.90
981;DHT22;479;53.514;9.994;2022-11-15T16:07:46;10.50;99.90
981;DHT22;479;53.514;9.994;2022-11-15T16:10:19;10.50;99.90
981;DHT22;479;53.514;9.994;2022-11-15T16:12:46;10.50;99.90
981;DHT22;479;53.514;9.994;2022-11-15T16:15:18;10.50;99.90
981;DHT22;479;53.514;9.994;2022-11-15T16:17:48;10.60;99.90
981;DHT22;479;53.514;9.994;2022-11-15T16:20:32;10.60;99.90
981;DHT22;479;53.514;9.994;2022-11-15T16:22:59;10.60;99.90
981;DHT22;479;53.514;9.994;2022-11-15T16:25:27;10.70;99.90
981;DHT22;479;53.514;9.994;2022-11-15T16:27:53;10.70;99.90
981;DHT22;479;53.514;9.994;2022-11-15T16:30:22;10.70;99.90
981;DHT22;479;53.514;9.994;2022-11-15T16:32:49;10.60;99.90
981;DHT22;479;53.514;9.994;2022-11-15T16:35:17;10.60;99.90
981;DHT22;479;53.514;9.994;2022-11-15T16:37:44;10.60;99.90
981;DHT22;479;53.514;9.994;2022-11-15T16:40:26;10.70;99.90
981;DHT22;479;53.514;9.994;2022-11-15T16:42:53;10.70;99.90
981;DHT22;479;53.514;9.994;2022-11-15T16:45:22;10.70;99.90
981;DHT22;479;53.514;9.994;2022-11-15T16:47:49;10.70;99.90
981;DHT22;479;53.514;9.994;2022-11-15T16:50:22;10.70;99.90
981;DHT22;479;53.514;9.994;2022-11-15T16:52:54;10.70;99.90
981;DHT22;479;53.514;9.994;2022-11-15T16:55:24;10.70;99.90
981;DHT22;479;53.514;9.994;2022-11-15T16:57:55;10.60;99.90
981;DHT22;479;53.514;9.994;2022-11-15T17:00:27;10.60;99.90
981;DHT22;479;53.514;9.994;2022-11-15T17:02:54;10.50;99.90
981;DHT22;479;53.514;9.994;2022-11-15T17:05:22;10.50;99.90
981;DHT22;479;53.514;9.994;2022-11-15T17:07:52;10.50;99.90
981;DHT22;479;53.514;9.994;2022-11-15T17:12:57;10.40;99.90
981;DHT22;479;53.514;9.994;2022-11-15T17:15:24;10.40;99.90
981;DHT22;479;53.514;9.994;2022-11-15T17:17:53;10.40;99.90
981;DHT22;479;53.514;9.994;2022-11-15T17:20:21;10.40;99.90
981;DHT22;479;53.514;9.994;2022-11-15T17:22:48;10.30;99.90
981;DHT22;479;53.514;9.994;2022-11-15T17:25:17;10.30;99.90
981;DHT22;479;53.514;9.994;2022-11-15T17:27:44;10.30;99.90
981;DHT22;479;53.514;9.994;2022-11-15T17:30:12;10.30;99.90
981;DHT22;479;53.514;9.994;2022-11-15T17:32:40;10.30;99.90
981;DHT22;479;53.514;9.994;2022-11-15T17:35:10;10.30;99.90
981;DHT22;479;53.514;9.994;2022-11-15T17:37:37;10.30;99.90
981;DHT22;479;53.514;9.994;2022-11-15T17:40:06;10.30;99.90
981;DHT22;479;53.514;9.994;2022-11-15T17:42:33;10.30;99.90
981;DHT22;479;53.514;9.994;2022-11-15T17:44:59;10.20;99.90
981;DHT22;479;53.514;9.994;2022-11-15T17:47:26;10.30;99.90
981;DHT22;479;53.514;9.994;2022-11-15T17:49:53;10.30;99.90
981;DHT22;479;53.514;9.994;2022-11-15T17:52:23;10.30;99.90
981;DHT22;479;53.514;9.994;2022-11-15T17:54:50;10.30;99.90
981;DHT22;479;53.514;9.994;2022-11-15T17:57:17;10.40;99.90
981;DHT22;479;53.514;9.994;2022-11-15T17:59:44;10.40;99.90
981;DHT22;479;53.514;9.994;2022-11-15T18:02:11;10.40;99.90
981;DHT22;479;53.514;9.994;2022-11-15T18:04:38;10.40;99.90
981;DHT22;479;53.514;9.994;2022-11-15T18:07:05;10.40;99.90
981;DHT22;479;53.514;9.994;2022-11-15T18:09:33;10.40;99.90
981;DHT22;479;53.514;9.994;2022-11-15T18:12:00;10.40;99.90
981;DHT22;479;53.514;9.994;2022-11-15T18:14:27;10.40;99.90
981;DHT22;479;53.514;9.994;2022-11-15T18:16:54;10.40;99.90
981;DHT22;479;53.514;9.994;2022-11-15T18:19:21;10.40;99.90
981;DHT22;479;53.514;9.994;2022-11-15T18:21:48;10.40;99.90
981;DHT22;479;53.514;9.994;2022-11-15T18:24:26;10.40;99.90
981;DHT22;479;53.514;9.994;2022-11-15T18:26:55;10.40;99.90
981;DHT22;479;53.514;9.994;2022-11-15T18:29:22;10.40;99.90
981;DHT22;479;53.514;9.994;2022-11-15T18:31:50;10.50;99.90
981;DHT22;479;53.514;9.994;2022-11-15T18:34:20;10.50;99.90
981;DHT22;479;53.514;9.994;2022-11-15T18:36:49;10.50;99.90